createdAt,value
2023-05-05T00:01:12.374Z,13.80
2023-05-05T00:06:07.274Z,13.56
2023-05-05T00:11:01.878Z,13.86
2023-05-05T00:15:55.345Z,14.27
2023-05-05T00:20:49.228Z,14.08
2023-05-05T00:25:42.438Z,14.06
2023-05-05T00:30:38.168Z,14.03
2023-05-05T00:35:31.381Z,13.58
2023-05-05T00:40:25.580Z,14.00
2023-05-05T00:45:20.035Z,13.62
2023-05-05T00:50:22.860Z,13.90
2023-05-05T00:55:16.144Z,14.05
2023-05-05T01:00:10.857Z,13.87
2023-05-05T01:05:05.037Z,13.84
2023-05-05T01:10:18.760Z,14.09
2023-05-05T01:15:22.476Z,13.90
2023-05-05T01:20:22.769Z,14.04
2023-05-05T01:25:32.201Z,14.05
2023-05-05T01:31:05.897Z,13.67
2023-05-05T01:36:08.836Z,13.25
2023-05-05T01:41:06.800Z,13.23
2023-05-05T01:46:01.857Z,13.64
2023-05-05T01:50:56.577Z,13.33
2023-05-05T01:55:53.933Z,13.41
2023-05-05T02:00:49.108Z,12.92
2023-05-05T02:05:45.297Z,13.30
2023-05-05T02:10:41.000Z,13.72
2023-05-05T02:15:39.395Z,13.10
2023-05-05T02:20:35.765Z,13.25
2023-05-05T02:25:36.793Z,13.73
2023-05-05T02:30:33.583Z,13.68
2023-05-05T02:35:35.979Z,13.64
2023-05-05T02:40:34.359Z,13.59
2023-05-05T02:45:30.414Z,13.41
2023-05-05T02:50:24.858Z,13.48
2023-05-05T02:55:37.872Z,13.37
2023-05-05T03:00:40.425Z,13.48
2023-05-05T03:05:43.966Z,13.43
2023-05-05T03:10:47.496Z,13.07
2023-05-05T03:15:45.982Z,13.10
2023-05-05T03:20:41.805Z,13.21
2023-05-05T03:25:46.261Z,13.01
2023-05-05T03:30:47.893Z,13.08
2023-05-05T03:35:43.205Z,13.27
2023-05-05T03:40:44.150Z,13.27
2023-05-05T03:45:42.644Z,13.30
2023-05-05T03:50:36.755Z,13.24
2023-05-05T03:55:30.379Z,13.30
2023-05-05T04:00:23.749Z,13.15
2023-05-05T04:05:19.960Z,13.32
2023-05-05T04:10:13.695Z,13.37
2023-05-05T04:15:08.234Z,13.36
2023-05-05T04:20:03.735Z,12.60
2023-05-05T04:25:00.309Z,12.96
2023-05-05T04:29:54.829Z,13.22
2023-05-05T04:34:48.526Z,13.05
2023-05-05T04:39:42.723Z,13.12
2023-05-05T04:44:37.884Z,13.39
2023-05-05T04:49:31.462Z,13.38
2023-05-05T04:54:25.416Z,13.51
2023-05-05T04:59:18.694Z,13.56
2023-05-05T05:04:14.043Z,13.60
2023-05-05T05:09:09.125Z,13.56
2023-05-05T05:14:02.554Z,13.62
2023-05-05T05:18:56.110Z,13.53
2023-05-05T05:23:51.109Z,13.47
2023-05-05T05:28:44.981Z,13.22
2023-05-05T05:33:38.685Z,13.38
2023-05-05T05:38:32.698Z,13.49
2023-05-05T05:43:30.236Z,13.52
2023-05-05T05:48:28.392Z,13.63
2023-05-05T05:53:22.513Z,13.66
2023-05-05T05:58:17.176Z,13.83
2023-05-05T06:03:13.259Z,13.59
2023-05-05T06:08:08.269Z,13.92
2023-05-05T06:13:06.500Z,14.01
2023-05-05T06:18:01.780Z,13.96
2023-05-05T06:22:56.367Z,14.15
2023-05-05T06:27:50.716Z,14.16
2023-05-05T06:32:44.066Z,13.96
2023-05-05T06:37:37.223Z,14.24
2023-05-05T06:42:32.306Z,14.13
2023-05-05T06:47:26.730Z,14.41
2023-05-05T06:52:19.849Z,14.50
2023-05-05T06:57:12.932Z,14.39
2023-05-05T07:02:07.509Z,14.52
2023-05-05T07:07:01.307Z,14.72
2023-05-05T07:11:54.470Z,14.74
2023-05-05T07:16:47.599Z,14.89
2023-05-05T07:21:42.702Z,14.85
2023-05-05T07:26:35.982Z,15.02
2023-05-05T07:31:29.096Z,15.16
2023-05-05T07:36:22.443Z,15.30
2023-05-05T07:41:19.618Z,15.27
2023-05-05T07:46:13.924Z,15.18
2023-05-05T07:51:07.139Z,15.37
2023-05-05T07:56:00.233Z,15.74
2023-05-05T08:00:54.750Z,15.75
2023-05-05T08:05:49.411Z,15.57
2023-05-05T08:10:44.296Z,15.70
2023-05-05T08:15:38.024Z,15.73
2023-05-05T08:20:32.688Z,15.79
2023-05-05T08:25:26.944Z,15.86
2023-05-05T08:30:21.472Z,16.25
2023-05-05T08:35:14.839Z,16.40
2023-05-05T08:40:14.139Z,16.68
2023-05-05T08:45:09.169Z,16.55
2023-05-05T08:50:03.391Z,16.87
2023-05-05T08:55:01.522Z,16.91
2023-05-05T08:59:58.909Z,17.38
2023-05-05T09:04:53.286Z,17.43
2023-05-05T09:09:46.993Z,17.70
2023-05-05T09:14:40.397Z,17.84
2023-05-05T09:19:35.245Z,17.81
2023-05-05T09:24:28.505Z,18.14
2023-05-05T09:29:22.873Z,18.04
2023-05-05T09:34:17.360Z,18.11
2023-05-05T09:39:12.028Z,18.29
2023-05-05T09:44:05.268Z,18.26
2023-05-05T09:49:12.430Z,18.49
2023-05-05T09:54:07.438Z,18.42
2023-05-05T09:59:11.210Z,18.47
2023-05-05T10:04:04.336Z,18.51
2023-05-05T10:09:07.541Z,18.37
2023-05-05T10:14:01.031Z,18.28
2023-05-05T10:18:58.102Z,18.31
2023-05-05T10:24:01.765Z,18.36
2023-05-05T10:28:57.367Z,17.66
2023-05-05T10:33:56.438Z,18.48
2023-05-05T10:38:51.673Z,18.68
2023-05-05T10:43:48.131Z,18.97
2023-05-05T10:48:48.253Z,19.02
2023-05-05T10:53:45.775Z,18.95
2023-05-05T10:58:51.296Z,18.81
2023-05-05T11:03:52.232Z,18.77
2023-05-05T11:08:47.084Z,18.63
2023-05-05T11:13:41.165Z,18.68
2023-05-05T11:18:39.449Z,18.69
2023-05-05T11:23:35.046Z,18.79
2023-05-05T11:28:31.413Z,18.76
2023-05-05T11:33:24.781Z,18.79
2023-05-05T11:38:20.240Z,19.00
2023-05-05T11:43:13.409Z,18.73
2023-05-05T11:48:27.127Z,19.54
2023-05-05T11:53:21.182Z,19.47
2023-05-05T11:58:20.379Z,19.82
2023-05-05T12:03:13.772Z,20.03
2023-05-05T12:08:08.529Z,20.04
2023-05-05T12:13:01.685Z,20.07
2023-05-05T12:17:54.879Z,20.21
2023-05-05T12:22:48.079Z,20.29
2023-05-05T12:27:52.735Z,20.45
2023-05-05T12:32:46.786Z,20.34
2023-05-05T12:37:40.305Z,20.02
2023-05-05T12:42:39.023Z,21.21
2023-05-05T12:47:35.156Z,21.21
2023-05-05T12:52:45.650Z,21.25
2023-05-05T12:57:39.957Z,21.13
2023-05-05T13:02:36.721Z,21.78
2023-05-05T13:07:30.033Z,22.63
2023-05-05T13:12:25.103Z,23.91
2023-05-05T13:17:18.656Z,25.03
2023-05-05T13:22:14.702Z,25.61
2023-05-05T13:27:08.025Z,26.73
2023-05-05T13:32:01.201Z,27.37
2023-05-05T13:36:54.362Z,27.57
2023-05-05T13:41:48.978Z,27.68
2023-05-05T13:46:42.753Z,27.87
2023-05-05T13:51:36.086Z,28.02
2023-05-05T13:56:29.989Z,27.93
2023-05-05T14:01:24.637Z,27.17
2023-05-05T14:06:17.942Z,26.82
2023-05-05T14:11:11.004Z,27.30
2023-05-05T14:16:04.200Z,27.97
2023-05-05T14:21:00.819Z,28.26
2023-05-05T14:25:55.842Z,28.30
2023-05-05T14:30:50.885Z,28.36
2023-05-05T14:35:44.224Z,28.21
2023-05-05T14:40:38.697Z,27.38
2023-05-05T14:45:32.720Z,26.60
2023-05-05T14:50:25.916Z,25.60
2023-05-05T14:55:19.273Z,24.73
2023-05-05T15:00:14.670Z,24.01
2023-05-05T15:05:08.936Z,23.38
2023-05-05T15:10:02.238Z,22.57
2023-05-05T15:14:55.527Z,21.92
2023-05-05T15:19:50.176Z,21.58
2023-05-05T15:24:43.246Z,21.36
2023-05-05T15:29:36.410Z,21.00
2023-05-05T15:34:29.640Z,20.59
2023-05-05T15:39:24.313Z,20.33
2023-05-05T15:44:17.498Z,19.87
2023-05-05T15:49:10.783Z,19.94
2023-05-05T15:54:03.976Z,19.80
2023-05-05T15:58:58.522Z,19.66
2023-05-05T16:03:51.909Z,19.51
2023-05-05T16:08:45.375Z,19.10
2023-05-05T16:13:39.267Z,19.02
2023-05-05T16:18:33.775Z,19.20
2023-05-05T16:23:26.898Z,19.11
2023-05-05T16:28:20.018Z,19.08
2023-05-05T16:33:13.126Z,18.85
2023-05-05T16:38:07.901Z,18.97
2023-05-05T16:43:01.131Z,18.82
2023-05-05T16:47:55.423Z,18.86
2023-05-05T16:52:48.734Z,18.68
2023-05-05T16:57:43.217Z,18.72
2023-05-05T17:02:36.762Z,18.61
2023-05-05T17:07:30.295Z,18.54
2023-05-05T17:12:23.722Z,18.40
2023-05-05T17:17:21.255Z,18.19
2023-05-05T17:22:14.445Z,18.19
2023-05-05T17:27:07.645Z,18.01
2023-05-05T17:32:00.807Z,17.84
2023-05-05T17:36:55.258Z,17.53
2023-05-05T17:41:48.362Z,17.30
2023-05-05T17:46:41.534Z,17.27
2023-05-05T17:51:34.650Z,17.16
2023-05-05T17:56:29.113Z,16.94
2023-05-05T18:01:22.480Z,17.00
2023-05-05T18:06:15.592Z,16.82
2023-05-05T18:11:08.767Z,16.81
2023-05-05T18:16:03.279Z,16.56
2023-05-05T18:20:56.360Z,16.50
2023-05-05T18:25:49.477Z,16.50
2023-05-05T18:30:42.642Z,16.28
2023-05-05T18:35:37.276Z,16.29
2023-05-05T18:40:32.471Z,16.23
2023-05-05T18:45:25.946Z,16.29
2023-05-05T18:50:19.161Z,16.26
2023-05-05T18:55:13.618Z,16.22
2023-05-05T19:00:07.956Z,16.16
2023-05-05T19:05:01.140Z,16.13
2023-05-05T19:09:54.387Z,16.18
2023-05-05T19:14:48.856Z,16.11
2023-05-05T19:19:41.922Z,15.96
2023-05-05T19:24:35.728Z,16.06
2023-05-05T19:29:29.043Z,15.88
2023-05-05T19:34:23.676Z,16.02
2023-05-05T19:39:16.833Z,15.82
2023-05-05T19:44:09.885Z,15.81
2023-05-05T19:49:02.936Z,15.63
2023-05-05T19:53:57.457Z,15.78
2023-05-05T19:58:57.490Z,15.70
2023-05-05T20:03:52.342Z,15.73
2023-05-05T20:08:47.571Z,15.67
2023-05-05T20:13:42.222Z,15.61
2023-05-05T20:18:35.462Z,15.52
2023-05-05T20:23:28.818Z,15.52
2023-05-05T20:28:22.586Z,15.28
2023-05-05T20:33:17.103Z,15.53
2023-05-05T20:38:10.466Z,15.53
2023-05-05T20:43:03.780Z,15.65
2023-05-05T20:47:56.847Z,15.59
2023-05-05T20:52:51.518Z,15.42
2023-05-05T20:57:44.569Z,15.57
2023-05-05T21:02:39.290Z,15.53
2023-05-05T21:07:34.203Z,15.29
2023-05-05T21:12:30.681Z,15.29
2023-05-05T21:17:23.974Z,15.24
2023-05-05T21:22:17.100Z,15.17
2023-05-05T21:27:10.330Z,15.04
2023-05-05T21:32:04.872Z,15.02
2023-05-05T21:36:58.240Z,14.85
2023-05-05T21:41:51.710Z,14.81
2023-05-05T21:46:44.880Z,14.63
2023-05-05T21:51:39.339Z,14.50
2023-05-05T21:56:32.406Z,14.37
2023-05-05T22:01:25.610Z,14.43
2023-05-05T22:06:20.528Z,14.48
2023-05-05T22:11:15.129Z,14.45
2023-05-05T22:16:08.686Z,14.38
2023-05-05T22:21:01.896Z,14.34
2023-05-05T22:25:55.363Z,14.39
2023-05-05T22:30:50.216Z,14.41
2023-05-05T22:35:43.432Z,14.54
2023-05-05T22:40:39.103Z,14.57
2023-05-05T22:45:32.190Z,14.46
2023-05-05T22:50:26.776Z,14.19
2023-05-05T22:55:20.428Z,14.61
2023-05-05T23:00:14.699Z,14.62
2023-05-05T23:05:08.590Z,14.62
2023-05-05T23:10:04.765Z,14.60
2023-05-05T23:14:57.987Z,14.32
2023-05-05T23:19:51.560Z,14.54
2023-05-05T23:24:44.944Z,14.40
2023-05-05T23:29:39.625Z,14.41
2023-05-05T23:34:32.778Z,14.43
2023-05-05T23:39:25.987Z,14.40
2023-05-05T23:44:19.179Z,14.10
2023-05-05T23:49:13.747Z,14.26
2023-05-05T23:54:07.360Z,14.13
2023-05-05T23:59:00.661Z,14.25
